createdAt,value
2022-12-11T00:00:24.572Z,68.05
2022-12-11T00:02:29.395Z,68.45
2022-12-11T00:04:32.546Z,68.24
2022-12-11T00:06:35.603Z,67.98
2022-12-11T00:08:38.757Z,68.42
2022-12-11T00:10:41.431Z,68.83
2022-12-11T00:12:44.082Z,68.46
2022-12-11T00:14:46.713Z,67.88
2022-12-11T00:16:49.980Z,68.39
2022-12-11T00:18:54.105Z,67.85
2022-12-11T00:20:56.759Z,68.24
2022-12-11T00:22:59.379Z,68.01
2022-12-11T00:25:01.982Z,68.46
2022-12-11T00:27:04.719Z,68.06
2022-12-11T00:29:08.348Z,68.29
2022-12-11T00:31:15.192Z,68.10
2022-12-11T00:33:18.181Z,68.28
2022-12-11T00:35:22.130Z,68.21
2022-12-11T00:37:24.946Z,68.57
2022-12-11T00:39:27.573Z,68.69
2022-12-11T00:41:30.210Z,68.86
2022-12-11T00:43:32.957Z,68.71
2022-12-11T00:45:37.916Z,68.77
2022-12-11T00:47:40.613Z,68.58
2022-12-11T00:49:49.401Z,68.91
2022-12-11T00:51:53.848Z,68.90
2022-12-11T00:53:56.628Z,69.59
2022-12-11T00:55:59.257Z,69.08
2022-12-11T00:58:01.843Z,69.39
2022-12-11T01:00:07.444Z,69.84
2022-12-11T01:02:10.064Z,69.59
2022-12-11T01:04:12.725Z,69.34
2022-12-11T01:06:17.204Z,68.96
2022-12-11T01:08:21.577Z,69.52
2022-12-11T01:10:26.210Z,69.17
2022-12-11T01:12:28.853Z,69.28
2022-12-11T01:14:31.470Z,69.35
2022-12-11T01:16:34.313Z,70.07
2022-12-11T01:18:37.325Z,70.39
2022-12-11T01:20:40.967Z,70.18
2022-12-11T01:22:43.627Z,70.50
2022-12-11T01:24:47.674Z,71.11
2022-12-11T01:26:50.256Z,70.59
2022-12-11T01:28:53.347Z,71.10
2022-12-11T01:30:55.966Z,70.53
2022-12-11T01:32:58.613Z,70.61
2022-12-11T01:35:01.946Z,70.50
2022-12-11T01:37:04.688Z,70.50
2022-12-11T01:39:07.355Z,70.77
2022-12-11T01:41:11.566Z,70.43
2022-12-11T01:43:14.193Z,70.98
2022-12-11T01:45:30.693Z,70.73
2022-12-11T01:47:33.343Z,71.24
2022-12-11T01:49:36.453Z,71.25
2022-12-11T01:51:42.782Z,71.22
2022-12-11T01:53:51.868Z,71.71
2022-12-11T01:55:56.684Z,71.80
2022-12-11T01:58:01.566Z,71.22
2022-12-11T02:00:05.987Z,71.52
2022-12-11T02:02:13.090Z,71.04
2022-12-11T02:04:17.012Z,71.05
2022-12-11T02:06:31.929Z,70.79
2022-12-11T02:08:34.628Z,71.04
2022-12-11T02:11:00.229Z,70.72
2022-12-11T02:13:13.000Z,70.64
2022-12-11T02:15:23.457Z,70.36
2022-12-11T02:17:33.883Z,71.32
2022-12-11T02:19:54.029Z,71.01
2022-12-11T02:21:57.991Z,71.35
2022-12-11T02:24:28.173Z,70.95
2022-12-11T02:26:44.410Z,70.44
2022-12-11T02:28:52.517Z,71.30
2022-12-11T02:31:00.536Z,71.23
2022-12-11T02:33:03.342Z,71.39
2022-12-11T02:35:13.023Z,71.34
2022-12-11T02:37:21.587Z,71.41
2022-12-11T02:39:26.969Z,70.28
2022-12-11T02:41:30.748Z,70.61
2022-12-11T02:43:35.265Z,70.50
2022-12-11T02:45:43.996Z,71.05
2022-12-11T02:47:48.959Z,70.60
2022-12-11T02:49:53.005Z,70.52
2022-12-11T02:51:57.601Z,71.35
2022-12-11T02:54:00.851Z,70.65
2022-12-11T02:56:09.592Z,70.46
2022-12-11T02:58:17.407Z,71.01
2022-12-11T03:00:20.734Z,70.90
2022-12-11T03:02:24.770Z,70.41
2022-12-11T03:04:27.492Z,70.87
2022-12-11T03:06:36.208Z,70.90
2022-12-11T03:08:38.862Z,70.19
2022-12-11T03:10:41.475Z,70.55
2022-12-11T03:12:50.473Z,70.02
2022-12-11T03:14:56.371Z,70.08
2022-12-11T03:17:08.971Z,69.65
2022-12-11T03:19:25.203Z,70.69
2022-12-11T03:21:35.092Z,70.50
2022-12-11T03:23:44.066Z,70.35
2022-12-11T03:25:54.592Z,70.03
2022-12-11T03:27:59.930Z,71.06
2022-12-11T03:30:07.353Z,70.73
2022-12-11T03:32:14.500Z,70.93
2022-12-11T03:34:24.011Z,70.97
2022-12-11T03:36:31.732Z,70.88
2022-12-11T03:38:40.165Z,70.15
2022-12-11T03:40:45.521Z,70.67
2022-12-11T03:42:51.826Z,71.22
2022-12-11T03:44:58.224Z,71.15
2022-12-11T03:47:04.699Z,70.95
2022-12-11T03:49:13.992Z,71.19
2022-12-11T03:51:18.617Z,70.83
2022-12-11T03:53:22.335Z,70.23
2022-12-11T03:55:27.109Z,70.31
2022-12-11T03:57:32.819Z,70.38
2022-12-11T03:59:35.403Z,70.81
2022-12-11T04:01:38.294Z,70.51
2022-12-11T04:03:40.974Z,70.82
2022-12-11T04:05:46.075Z,70.71
2022-12-11T04:07:50.086Z,71.00
2022-12-11T04:09:52.742Z,70.71
2022-12-11T04:11:54.383Z,70.55
2022-12-11T04:14:10.739Z,70.70
2022-12-11T04:16:13.392Z,70.22
2022-12-11T04:18:33.315Z,69.94
2022-12-11T04:20:53.617Z,70.57
2022-12-11T04:23:15.207Z,70.72
2022-12-11T04:25:20.779Z,69.95
2022-12-11T04:27:40.823Z,70.08
2022-12-11T04:29:43.396Z,70.06
2022-12-11T04:31:47.278Z,70.92
2022-12-11T04:33:49.996Z,70.03
2022-12-11T04:35:52.739Z,70.58
2022-12-11T04:37:56.785Z,70.75
2022-12-11T04:39:59.395Z,70.58
2022-12-11T04:42:02.026Z,69.90
2022-12-11T04:44:05.033Z,69.94
2022-12-11T04:46:09.697Z,69.52
2022-12-11T04:48:12.303Z,69.17
2022-12-11T04:50:16.015Z,69.47
2022-12-11T04:52:19.217Z,69.46
2022-12-11T04:54:23.290Z,70.15
2022-12-11T04:56:25.951Z,69.92
2022-12-11T04:58:29.164Z,69.65
2022-12-11T05:00:31.803Z,70.11
2022-12-11T05:02:36.094Z,69.51
2022-12-11T05:04:38.782Z,69.43
2022-12-11T05:06:41.541Z,70.15
2022-12-11T05:08:45.212Z,69.51
2022-12-11T05:10:58.376Z,69.18
2022-12-11T05:13:01.046Z,69.53
2022-12-11T05:15:03.830Z,70.22
2022-12-11T05:17:06.414Z,70.13
2022-12-11T05:19:09.164Z,69.71
2022-12-11T05:21:14.359Z,70.10
2022-12-11T05:23:16.929Z,70.77
2022-12-11T05:25:19.579Z,70.93
2022-12-11T05:27:23.567Z,71.03
2022-12-11T05:29:26.158Z,70.52
2022-12-11T05:31:29.248Z,70.69
2022-12-11T05:33:32.696Z,70.06
2022-12-11T05:35:35.297Z,69.52
2022-12-11T05:37:37.900Z,70.39
2022-12-11T05:39:40.520Z,69.73
2022-12-11T05:41:43.139Z,69.71
2022-12-11T05:43:47.074Z,70.42
2022-12-11T05:45:49.690Z,70.11
2022-12-11T05:47:52.273Z,69.93
2022-12-11T05:49:54.868Z,70.04
2022-12-11T05:51:58.631Z,68.84
2022-12-11T05:54:01.687Z,68.90
2022-12-11T05:56:05.500Z,69.32
2022-12-11T05:58:08.108Z,69.17
2022-12-11T06:00:13.731Z,69.44
2022-12-11T06:02:16.526Z,68.41
2022-12-11T06:04:19.249Z,69.03
2022-12-11T06:06:22.396Z,69.16
2022-12-11T06:08:25.010Z,69.23
2022-12-11T06:10:27.680Z,69.12
2022-12-11T06:12:31.095Z,69.04
2022-12-11T06:14:33.700Z,69.55
2022-12-11T06:16:37.817Z,68.66
2022-12-11T06:18:42.643Z,68.23
2022-12-11T06:20:45.466Z,68.52
2022-12-11T06:22:48.464Z,68.23
2022-12-11T06:24:51.339Z,68.69
2022-12-11T06:26:53.979Z,68.38
2022-12-11T06:28:56.604Z,68.28
2022-12-11T06:30:59.743Z,68.53
2022-12-11T06:33:03.675Z,68.48
2022-12-11T06:35:07.357Z,67.81
2022-12-11T06:37:10.014Z,68.72
2022-12-11T06:39:12.610Z,67.81
2022-12-11T06:41:16.098Z,67.68
2022-12-11T06:43:18.668Z,67.89
2022-12-11T06:45:21.379Z,67.43
2022-12-11T06:47:24.206Z,66.91
2022-12-11T06:49:28.258Z,67.57
2022-12-11T06:51:31.253Z,67.43
2022-12-11T06:53:33.909Z,67.52
2022-12-11T06:55:37.004Z,67.40
2022-12-11T06:57:39.628Z,67.10
2022-12-11T06:59:42.234Z,67.25
2022-12-11T07:01:44.809Z,67.22
2022-12-11T07:03:47.943Z,67.68
2022-12-11T07:05:52.007Z,67.20
2022-12-11T07:07:55.539Z,67.62
2022-12-11T07:10:02.737Z,67.03
2022-12-11T07:12:10.292Z,67.53
2022-12-11T07:14:12.962Z,67.18
2022-12-11T07:16:17.925Z,66.83
2022-12-11T07:18:20.606Z,66.76
2022-12-11T07:20:23.357Z,66.89
2022-12-11T07:22:27.430Z,66.85
2022-12-11T07:24:30.028Z,66.67
2022-12-11T07:26:32.640Z,66.94
2022-12-11T07:28:36.090Z,66.83
2022-12-11T07:30:41.826Z,66.73
2022-12-11T07:32:44.645Z,66.43
2022-12-11T07:34:51.518Z,66.74
2022-12-11T07:36:54.604Z,65.47
2022-12-11T07:38:59.507Z,66.15
2022-12-11T07:41:02.504Z,66.07
2022-12-11T07:43:05.190Z,66.67
2022-12-11T07:45:08.931Z,66.09
2022-12-11T07:47:11.719Z,66.33
2022-12-11T07:49:14.333Z,66.01
2022-12-11T07:51:18.546Z,66.13
2022-12-11T07:53:21.263Z,66.16
2022-12-11T07:55:25.309Z,66.63
2022-12-11T07:57:29.627Z,67.01
2022-12-11T07:59:32.597Z,66.97
2022-12-11T08:01:36.761Z,66.97
2022-12-11T08:03:39.410Z,67.05
2022-12-11T08:05:48.631Z,67.53
2022-12-11T08:07:51.307Z,67.28
2022-12-11T08:09:53.930Z,67.32
2022-12-11T08:11:57.898Z,66.66
2022-12-11T08:14:01.028Z,67.58
2022-12-11T08:16:05.145Z,67.12
2022-12-11T08:18:07.763Z,66.46
2022-12-11T08:20:11.438Z,66.74
2022-12-11T08:22:14.374Z,66.83
2022-12-11T08:24:20.601Z,66.99
2022-12-11T08:26:25.439Z,66.69
2022-12-11T08:28:29.362Z,66.63
2022-12-11T08:30:32.442Z,66.19
2022-12-11T08:32:35.437Z,66.34
2022-12-11T08:34:38.011Z,66.21
2022-12-11T08:36:41.014Z,66.16
2022-12-11T08:38:43.855Z,66.39
2022-12-11T08:40:46.432Z,66.12
2022-12-11T08:42:49.135Z,66.34
2022-12-11T08:44:53.066Z,66.03
2022-12-11T08:46:55.668Z,65.94
2022-12-11T08:48:58.859Z,65.68
2022-12-11T08:51:02.287Z,65.74
2022-12-11T08:53:04.971Z,66.67
2022-12-11T08:55:08.776Z,66.27
2022-12-11T08:57:11.627Z,66.85
2022-12-11T08:59:14.220Z,65.46
2022-12-11T09:01:21.564Z,66.29
2022-12-11T09:03:24.391Z,65.71
2022-12-11T09:05:27.022Z,66.01
2022-12-11T09:07:29.625Z,65.93
2022-12-11T09:09:32.257Z,65.23
2022-12-11T09:11:37.274Z,65.56
2022-12-11T09:13:41.420Z,65.76
2022-12-11T09:15:45.617Z,66.30
2022-12-11T09:17:49.677Z,66.06
2022-12-11T09:19:52.491Z,66.01
2022-12-11T09:21:55.176Z,65.50
2022-12-11T09:23:59.471Z,65.63
2022-12-11T09:26:05.919Z,64.74
2022-12-11T09:28:08.491Z,65.51
2022-12-11T09:30:11.583Z,64.54
2022-12-11T09:32:14.186Z,65.05
2022-12-11T09:34:18.111Z,63.19
2022-12-11T09:36:20.768Z,63.20
2022-12-11T09:38:23.361Z,63.47
2022-12-11T09:40:26.004Z,64.03
2022-12-11T09:42:34.385Z,63.99
2022-12-11T09:44:43.245Z,63.58
2022-12-11T09:46:49.613Z,64.37
2022-12-11T09:48:53.656Z,64.57
2022-12-11T09:50:58.390Z,65.13
2022-12-11T09:53:09.485Z,65.14
2022-12-11T09:55:17.358Z,64.79
2022-12-11T09:57:30.988Z,64.19
2022-12-11T09:59:42.813Z,64.22
2022-12-11T10:01:47.848Z,65.06
2022-12-11T10:04:06.537Z,64.54
2022-12-11T10:06:16.548Z,64.80
2022-12-11T10:08:26.385Z,64.46
2022-12-11T10:10:40.315Z,63.88
2022-12-11T10:12:51.569Z,63.53
2022-12-11T10:15:13.890Z,63.99
2022-12-11T10:17:21.056Z,63.94
2022-12-11T10:19:27.609Z,64.04
2022-12-11T10:21:39.908Z,63.54
2022-12-11T10:23:47.909Z,63.56
2022-12-11T10:25:55.301Z,63.65
2022-12-11T10:27:58.123Z,63.65
2022-12-11T10:30:08.494Z,63.10
2022-12-11T10:32:22.542Z,64.25
2022-12-11T10:34:34.814Z,64.79
2022-12-11T10:36:41.722Z,64.83
2022-12-11T10:38:46.217Z,64.67
2022-12-11T10:40:55.736Z,64.88
2022-12-11T10:42:58.326Z,65.01
2022-12-11T10:45:03.095Z,65.37
2022-12-11T10:47:10.259Z,64.22
2022-12-11T10:49:23.528Z,64.48
2022-12-11T10:51:35.969Z,64.45
2022-12-11T10:53:43.194Z,65.32
2022-12-11T10:55:48.498Z,63.73
2022-12-11T10:58:00.734Z,63.82
2022-12-11T11:00:06.069Z,64.28
2022-12-11T11:02:22.823Z,64.65
2022-12-11T11:04:31.807Z,64.74
2022-12-11T11:06:36.257Z,64.32
2022-12-11T11:08:44.058Z,64.38
2022-12-11T11:10:55.843Z,63.78
2022-12-11T11:13:01.639Z,64.18
2022-12-11T11:15:07.569Z,64.39
2022-12-11T11:17:16.629Z,64.72
2022-12-11T11:19:25.763Z,63.92
2022-12-11T11:21:30.053Z,64.65
2022-12-11T11:23:32.835Z,63.72
2022-12-11T11:25:36.834Z,64.02
2022-12-11T11:27:45.226Z,63.19
2022-12-11T11:29:52.939Z,64.13
2022-12-11T11:31:56.159Z,64.59
2022-12-11T11:34:03.209Z,64.85
2022-12-11T11:36:08.351Z,64.31
2022-12-11T11:38:19.982Z,63.24
2022-12-11T11:40:29.197Z,63.77
2022-12-11T11:42:42.719Z,63.53
2022-12-11T11:44:54.639Z,62.44
2022-12-11T11:47:00.066Z,62.79
2022-12-11T11:49:11.691Z,63.36
2022-12-11T11:51:17.187Z,63.86
2022-12-11T11:53:25.390Z,64.20
2022-12-11T11:55:39.749Z,63.06
2022-12-11T11:57:49.723Z,62.65
2022-12-11T11:59:57.156Z,61.33
2022-12-11T12:02:00.478Z,62.39
2022-12-11T12:04:04.912Z,62.19
2022-12-11T12:06:15.543Z,62.52
2022-12-11T12:08:27.473Z,63.29
2022-12-11T12:10:38.025Z,63.33
2022-12-11T12:12:50.698Z,63.68
2022-12-11T12:15:03.378Z,64.53
2022-12-11T12:17:20.339Z,64.19
2022-12-11T12:19:42.457Z,63.23
2022-12-11T12:21:50.274Z,63.30
2022-12-11T12:24:10.541Z,63.65
2022-12-11T12:26:18.298Z,63.99
2022-12-11T12:28:30.429Z,64.04
2022-12-11T12:30:41.239Z,64.63
2022-12-11T12:32:56.537Z,63.99
2022-12-11T12:35:11.448Z,64.48
2022-12-11T12:37:25.569Z,64.92
2022-12-11T12:39:36.364Z,64.05
2022-12-11T12:41:49.132Z,64.56
2022-12-11T12:44:05.128Z,64.71
2022-12-11T12:46:20.797Z,64.21
2022-12-11T12:48:25.919Z,64.00
2022-12-11T12:50:38.379Z,63.92
2022-12-11T12:52:42.639Z,63.83
2022-12-11T12:55:08.745Z,63.93
2022-12-11T12:57:11.839Z,64.70
2022-12-11T12:59:26.575Z,64.72
2022-12-11T13:01:32.332Z,64.19
2022-12-11T13:03:38.568Z,64.39
2022-12-11T13:05:44.258Z,64.05
2022-12-11T13:07:54.478Z,64.92
2022-12-11T13:10:00.768Z,64.97
2022-12-11T13:12:14.478Z,64.74
2022-12-11T13:14:31.612Z,63.99
2022-12-11T13:16:39.259Z,63.74
2022-12-11T13:18:44.261Z,63.98
2022-12-11T13:20:51.038Z,63.91
2022-12-11T13:23:19.544Z,64.18
2022-12-11T13:25:26.706Z,63.60
2022-12-11T13:27:38.987Z,63.21
2022-12-11T13:29:43.553Z,63.78
2022-12-11T13:31:46.773Z,63.16
2022-12-11T13:33:51.541Z,64.05
2022-12-11T13:36:25.010Z,63.09
2022-12-11T13:38:27.773Z,63.17
2022-12-11T13:40:38.254Z,63.49
2022-12-11T13:42:48.989Z,62.49
2022-12-11T13:44:53.759Z,62.67
2022-12-11T13:46:58.913Z,61.31
2022-12-11T13:49:03.970Z,61.13
2022-12-11T13:51:07.647Z,60.89
2022-12-11T13:53:17.607Z,60.89
2022-12-11T13:55:25.016Z,60.52
2022-12-11T13:57:29.118Z,60.30
2022-12-11T13:59:35.536Z,59.66
2022-12-11T14:01:40.827Z,60.30
2022-12-11T14:03:54.005Z,59.92
2022-12-11T14:05:56.798Z,60.22
2022-12-11T14:08:03.608Z,60.29
2022-12-11T14:10:09.548Z,60.11
2022-12-11T14:12:18.322Z,59.99
2022-12-11T14:14:24.729Z,59.95
2022-12-11T14:16:28.364Z,59.75
2022-12-11T14:18:34.569Z,60.38
2022-12-11T14:20:37.187Z,60.63
2022-12-11T14:22:39.804Z,60.20
2022-12-11T14:24:49.781Z,61.01
2022-12-11T14:26:54.983Z,61.05
2022-12-11T14:28:57.898Z,60.87
2022-12-11T14:31:02.782Z,60.86
2022-12-11T14:33:06.860Z,61.19
2022-12-11T14:35:26.470Z,61.02
2022-12-11T14:37:29.527Z,61.17
2022-12-11T14:39:36.198Z,61.58
2022-12-11T14:41:48.484Z,61.29
2022-12-11T14:43:55.234Z,61.71
2022-12-11T14:46:01.940Z,62.14
2022-12-11T14:48:09.016Z,61.74
2022-12-11T14:50:20.587Z,62.52
2022-12-11T14:52:26.877Z,62.45
2022-12-11T14:54:34.614Z,62.96
2022-12-11T14:56:37.257Z,63.39
2022-12-11T14:58:45.365Z,63.56
2022-12-11T15:00:58.515Z,63.66
2022-12-11T15:03:03.811Z,62.71
2022-12-11T15:05:21.256Z,63.59
2022-12-11T15:07:25.547Z,62.95
2022-12-11T15:09:30.478Z,63.22
2022-12-11T15:11:33.725Z,63.21
2022-12-11T15:13:38.977Z,62.92
2022-12-11T15:15:46.531Z,63.22
2022-12-11T15:17:52.999Z,62.74
2022-12-11T15:19:58.405Z,62.69
2022-12-11T15:22:07.905Z,62.55
2022-12-11T15:24:24.566Z,62.49
2022-12-11T15:26:34.884Z,62.25
2022-12-11T15:28:39.435Z,62.90
2022-12-11T15:30:42.271Z,62.74
2022-12-11T15:32:44.935Z,62.46
2022-12-11T15:34:49.463Z,63.09
2022-12-11T15:36:52.357Z,63.65
2022-12-11T15:38:56.334Z,63.21
2022-12-11T15:40:59.363Z,63.06
2022-12-11T15:43:03.292Z,62.95
2022-12-11T15:45:09.256Z,63.80
2022-12-11T15:47:16.054Z,63.91
2022-12-11T15:49:19.042Z,63.87
2022-12-11T15:51:22.863Z,64.05
2022-12-11T15:53:25.661Z,64.16
2022-12-11T15:55:34.837Z,64.63
2022-12-11T15:57:38.030Z,64.11
2022-12-11T15:59:40.637Z,64.63
2022-12-11T16:01:43.383Z,64.34
2022-12-11T16:03:46.414Z,64.38
2022-12-11T16:05:50.614Z,64.78
2022-12-11T16:07:54.543Z,64.29
2022-12-11T16:09:57.229Z,64.32
2022-12-11T16:12:01.358Z,64.30
2022-12-11T16:14:04.540Z,64.72
2022-12-11T16:16:07.602Z,65.49
2022-12-11T16:18:12.166Z,64.58
2022-12-11T16:20:16.149Z,64.57
2022-12-11T16:22:19.478Z,65.09
2022-12-11T16:24:22.628Z,64.89
2022-12-11T16:26:25.427Z,65.01
2022-12-11T16:28:29.364Z,64.66
2022-12-11T16:30:32.281Z,64.99
2022-12-11T16:32:34.963Z,65.34
2022-12-11T16:34:38.637Z,64.89
2022-12-11T16:36:41.285Z,64.69
2022-12-11T16:38:52.925Z,65.58
2022-12-11T16:41:01.207Z,65.14
2022-12-11T16:43:04.940Z,64.96
2022-12-11T16:45:13.646Z,65.48
2022-12-11T16:47:16.405Z,65.10
2022-12-11T16:49:19.595Z,64.40
2022-12-11T16:51:22.423Z,64.72
2022-12-11T16:53:25.421Z,65.11
2022-12-11T16:55:28.024Z,65.01
2022-12-11T16:57:30.842Z,64.91
2022-12-11T16:59:37.066Z,64.46
2022-12-11T17:01:41.722Z,65.30
2022-12-11T17:03:45.129Z,64.86
2022-12-11T17:05:47.716Z,65.63
2022-12-11T17:07:50.596Z,65.49
2022-12-11T17:09:53.245Z,65.37
2022-12-11T17:11:56.407Z,66.11
2022-12-11T17:14:00.422Z,65.87
2022-12-11T17:16:05.693Z,66.13
2022-12-11T17:18:09.902Z,66.64
2022-12-11T17:20:12.761Z,65.86
2022-12-11T17:22:15.342Z,66.26
2022-12-11T17:24:18.899Z,66.70
2022-12-11T17:26:21.488Z,66.49
2022-12-11T17:28:24.085Z,66.19
2022-12-11T17:30:26.809Z,66.01
2022-12-11T17:32:29.429Z,66.57
2022-12-11T17:34:38.112Z,66.61
2022-12-11T17:36:41.284Z,67.07
2022-12-11T17:38:44.184Z,66.85
2022-12-11T17:40:46.865Z,66.91
2022-12-11T17:42:49.984Z,66.39
2022-12-11T17:44:52.541Z,67.05
2022-12-11T17:46:55.157Z,67.13
2022-12-11T17:49:00.061Z,66.98
2022-12-11T17:51:07.291Z,66.89
2022-12-11T17:53:10.175Z,66.49
2022-12-11T17:55:13.130Z,67.41
2022-12-11T17:57:15.939Z,67.52
2022-12-11T17:59:18.634Z,66.42
2022-12-11T18:01:21.515Z,67.42
2022-12-11T18:03:24.167Z,67.14
2022-12-11T18:05:26.950Z,66.97
2022-12-11T18:07:30.901Z,67.19
2022-12-11T18:09:33.930Z,67.24
2022-12-11T18:11:36.508Z,67.42
2022-12-11T18:13:39.793Z,66.84
2022-12-11T18:15:42.600Z,66.73
2022-12-11T18:17:45.492Z,66.83
2022-12-11T18:19:48.042Z,66.86
2022-12-11T18:21:50.719Z,67.37
2022-12-11T18:23:55.019Z,66.69
2022-12-11T18:25:57.608Z,66.99
2022-12-11T18:28:00.513Z,66.82
2022-12-11T18:30:03.165Z,66.65
2022-12-11T18:32:06.134Z,67.41
2022-12-11T18:34:09.407Z,67.43
2022-12-11T18:36:13.104Z,67.01
2022-12-11T18:38:15.732Z,66.94
2022-12-11T18:40:19.858Z,67.02
2022-12-11T18:42:37.690Z,66.81
2022-12-11T18:44:40.589Z,67.28
2022-12-11T18:46:43.452Z,67.13
2022-12-11T18:48:46.896Z,67.57
2022-12-11T18:50:51.511Z,66.90
2022-12-11T18:52:54.958Z,67.54
2022-12-11T18:54:57.717Z,67.08
2022-12-11T18:57:01.911Z,67.24
2022-12-11T18:59:04.751Z,66.69
2022-12-11T19:01:08.778Z,67.34
2022-12-11T19:03:13.659Z,67.00
2022-12-11T19:05:16.239Z,66.61
2022-12-11T19:07:18.920Z,67.67
2022-12-11T19:09:21.529Z,67.16
2022-12-11T19:11:26.621Z,67.26
2022-12-11T19:13:30.650Z,67.25
2022-12-11T19:15:33.269Z,67.45
2022-12-11T19:17:35.896Z,67.63
2022-12-11T19:19:38.554Z,67.32
2022-12-11T19:21:42.193Z,67.30
2022-12-11T19:23:45.617Z,67.46
2022-12-11T19:25:49.201Z,67.49
2022-12-11T19:27:51.817Z,67.29
2022-12-11T19:29:55.797Z,67.82
2022-12-11T19:31:58.423Z,67.26
2022-12-11T19:34:02.854Z,67.46
2022-12-11T19:36:09.308Z,67.17
2022-12-11T19:38:12.780Z,67.67
2022-12-11T19:40:15.533Z,67.62
2022-12-11T19:42:18.162Z,67.51
2022-12-11T19:44:20.832Z,67.05
2022-12-11T19:46:25.859Z,67.15
2022-12-11T19:48:28.598Z,66.89
2022-12-11T19:50:31.222Z,67.54
2022-12-11T19:52:34.163Z,67.51
2022-12-11T19:54:37.108Z,67.18
2022-12-11T19:56:39.955Z,67.90
2022-12-11T19:58:43.117Z,67.89
2022-12-11T20:00:47.413Z,67.68
2022-12-11T20:02:51.737Z,67.82
2022-12-11T20:04:55.354Z,68.05
2022-12-11T20:06:58.058Z,68.26
2022-12-11T20:09:01.281Z,67.99
2022-12-11T20:11:05.846Z,68.15
2022-12-11T20:13:08.695Z,68.17
2022-12-11T20:15:12.271Z,67.80
2022-12-11T20:17:15.464Z,67.33
2022-12-11T20:19:19.832Z,67.61
2022-12-11T20:21:23.440Z,67.79
2022-12-11T20:23:25.991Z,67.94
2022-12-11T20:25:28.983Z,68.07
2022-12-11T20:27:31.614Z,68.59
2022-12-11T20:29:34.322Z,68.26
2022-12-11T20:31:37.698Z,68.18
2022-12-11T20:33:40.747Z,68.04
2022-12-11T20:35:45.294Z,67.64
2022-12-11T20:37:47.879Z,67.73
2022-12-11T20:39:50.537Z,67.26
2022-12-11T20:41:53.152Z,67.11
2022-12-11T20:43:55.979Z,66.80
2022-12-11T20:46:00.144Z,66.70
2022-12-11T20:48:02.900Z,67.03
2022-12-11T20:50:06.588Z,67.06
2022-12-11T20:52:10.610Z,66.85
2022-12-11T20:54:13.303Z,67.45
2022-12-11T20:56:19.421Z,67.25
2022-12-11T20:58:22.326Z,67.29
2022-12-11T21:00:25.319Z,67.45
2022-12-11T21:02:30.752Z,67.48
2022-12-11T21:04:33.635Z,67.29
2022-12-11T21:06:38.696Z,67.41
2022-12-11T21:08:42.691Z,67.34
2022-12-11T21:10:47.320Z,67.81
2022-12-11T21:12:50.361Z,67.21
2022-12-11T21:14:52.941Z,67.86
2022-12-11T21:16:56.309Z,67.18
2022-12-11T21:18:59.992Z,67.39
2022-12-11T21:21:02.629Z,67.63
2022-12-11T21:23:05.497Z,67.48
2022-12-11T21:25:10.384Z,67.31
2022-12-11T21:27:13.326Z,66.96
2022-12-11T21:29:16.702Z,66.59
2022-12-11T21:31:20.893Z,66.71
2022-12-11T21:33:23.527Z,66.25
2022-12-11T21:35:26.168Z,66.46
2022-12-11T21:37:28.800Z,65.98
2022-12-11T21:39:36.103Z,66.35
2022-12-11T21:41:43.169Z,66.51
2022-12-11T21:44:56.205Z,66.51
2022-12-11T21:46:12.895Z,66.46
2022-12-11T21:48:15.688Z,66.13
2022-12-11T21:50:18.975Z,66.48
2022-12-11T21:52:21.644Z,66.25
2022-12-11T21:54:24.297Z,66.26
2022-12-11T21:56:29.341Z,66.14
2022-12-11T21:58:33.560Z,65.96
2022-12-11T22:00:36.986Z,65.98
2022-12-11T22:02:41.289Z,66.35
2022-12-11T22:04:47.396Z,66.12
2022-12-11T22:06:50.014Z,66.13
2022-12-11T22:08:52.823Z,66.17
2022-12-11T22:10:56.598Z,66.65
2022-12-11T22:12:59.287Z,66.62
2022-12-11T22:15:03.217Z,66.34
2022-12-11T22:17:05.782Z,66.65
2022-12-11T22:19:08.499Z,66.86
2022-12-11T22:21:11.155Z,66.56
2022-12-11T22:23:13.999Z,66.45
2022-12-11T22:25:16.635Z,66.46
2022-12-11T22:27:23.693Z,66.17
2022-12-11T22:29:26.727Z,66.60
2022-12-11T22:31:30.741Z,66.68
2022-12-11T22:33:33.370Z,66.72
2022-12-11T22:35:36.105Z,66.68
2022-12-11T22:37:38.730Z,66.33
2022-12-11T22:39:41.372Z,66.36
2022-12-11T22:41:44.021Z,66.57
2022-12-11T22:43:46.855Z,66.84
2022-12-11T22:45:49.580Z,66.50
2022-12-11T22:47:53.637Z,66.79
2022-12-11T22:49:56.416Z,67.19
2022-12-11T22:51:59.041Z,67.15
2022-12-11T22:54:01.644Z,67.50
2022-12-11T22:56:05.889Z,67.79
2022-12-11T22:58:08.555Z,67.95
2022-12-11T23:00:16.865Z,67.92
2022-12-11T23:02:19.618Z,67.93
2022-12-11T23:04:23.668Z,67.98
2022-12-11T23:06:26.332Z,67.62
2022-12-11T23:08:29.066Z,67.41
2022-12-11T23:10:31.843Z,67.28
2022-12-11T23:12:34.770Z,67.54
2022-12-11T23:14:37.477Z,67.54
2022-12-11T23:16:40.197Z,67.33
2022-12-11T23:18:43.486Z,67.31
2022-12-11T23:20:47.418Z,67.67
2022-12-11T23:22:50.051Z,67.39
2022-12-11T23:24:52.634Z,67.04
2022-12-11T23:26:55.277Z,65.83
2022-12-11T23:28:59.641Z,65.90
2022-12-11T23:31:02.270Z,66.11
2022-12-11T23:33:06.520Z,65.97
2022-12-11T23:35:10.209Z,66.25
2022-12-11T23:37:14.434Z,65.96
2022-12-11T23:39:16.997Z,65.28
2022-12-11T23:41:19.649Z,65.37
2022-12-11T23:43:22.289Z,64.72
2022-12-11T23:45:25.306Z,64.53
2022-12-11T23:47:27.948Z,64.96
2022-12-11T23:49:30.583Z,64.42
2022-12-11T23:51:33.197Z,64.81
2022-12-11T23:53:37.122Z,64.66
2022-12-11T23:55:41.511Z,64.73
2022-12-11T23:57:44.156Z,64.89
2022-12-11T23:59:46.731Z,64.82
